Time;durP1;ratioP1;P1;durP2;ratioP2;P2;SDS_P1;SDS_P2;PMS_P1;PMS_P2;Temp;Humidity;BMP_temperature;BMP_pressure;BME280_temperature;BME280_humidity;BME280_pressure;Samples;Min_cycle;Max_cycle;Signal;HPM_P1;HPM_P2
2022/08/17 00:00:47;;;;;;;;;;;;;;;19.79;59.71;100468.28;5051823;28;19920;-78
2022/08/17 00:03:23;;;;;;;;;;;;;;;19.80;59.15;100470.81;5040354;28;19975;-78
2022/08/17 00:06:10;;;;;;;;;;;;;;;19.82;59.03;100470.72;5049681;28;19943;-78
2022/08/17 00:08:55;;;;;;;;;;;;;;;19.80;59.52;100465.56;5045303;28;19920;-78
2022/08/17 00:11:23;;;;;;;;;;;;;;;19.79;60.46;100470.91;5030770;28;19925;-78
2022/08/17 00:13:53;;;;;;;;;;;;;;;19.78;60.14;100464.81;5048347;28;19921;-78
2022/08/17 00:16:24;;;;;;;;;;;;;;;19.81;60.11;100471.69;5047438;28;19927;-78
2022/08/17 00:18:51;;;;;;;;;;;;;;;19.84;59.54;100474.13;5046241;28;19927;-78
2022/08/17 00:21:18;;;;;;;;;;;;;;;19.80;60.66;100470.81;5052610;28;19992;-78
2022/08/17 00:23:44;;;;;;;;;;;;;;;19.76;61.42;100471.97;5051283;28;19928;-78
2022/08/17 00:26:09;;;;;;;;;;;;;;;19.78;60.97;100472.72;5047374;28;20377;-78
2022/08/17 00:28:35;;;;;;;;;;;;;;;19.76;61.77;100469.31;5049516;28;19971;-78
2022/08/17 00:31:01;;;;;;;;;;;;;;;19.77;61.30;100471.03;5031628;28;20012;-78
2022/08/17 00:33:28;;;;;;;;;;;;;;;19.79;60.60;100460.38;5051025;28;20019;-78
2022/08/17 00:35:54;;;;;;;;;;;;;;;19.77;61.54;100455.22;5043727;28;19935;-78
2022/08/17 00:38:20;;;;;;;;;;;;;;;19.75;61.17;100457.09;5043488;28;19928;-78
2022/08/17 00:40:47;;;;;;;;;;;;;;;19.74;61.38;100460.69;5039302;28;19926;-78
2022/08/17 00:43:21;;;;;;;;;;;;;;;19.76;61.61;100460.56;5037357;28;19932;-78
2022/08/17 00:45:47;;;;;;;;;;;;;;;19.80;60.69;100459.44;5044974;28;19924;-78
2022/08/17 00:48:12;;;;;;;;;;;;;;;19.78;59.90;100446.38;5058289;28;20019;-78
2022/08/17 00:50:40;;;;;;;;;;;;;;;19.76;60.46;100452.66;5019134;28;20000;-78
2022/08/17 00:53:05;;;;;;;;;;;;;;;19.74;60.68;100452.75;5027544;28;19932;-78
2022/08/17 00:55:31;;;;;;;;;;;;;;;19.73;61.34;100451.06;5024524;28;20297;-78
2022/08/17 00:57:59;;;;;;;;;;;;;;;19.73;60.91;100447.56;5000967;28;19940;-78
2022/08/17 01:00:31;;;;;;;;;;;;;;;19.71;60.98;100450.31;5036099;28;19923;-78
2022/08/17 01:02:58;;;;;;;;;;;;;;;19.71;61.21;100450.31;5040387;28;20385;-78
2022/08/17 01:05:25;;;;;;;;;;;;;;;19.65;61.59;100445.44;5042511;28;19927;-78
2022/08/17 01:07:51;;;;;;;;;;;;;;;19.69;61.32;100441.69;5042588;28;19921;-78
2022/08/17 01:10:19;;;;;;;;;;;;;;;19.67;61.41;100446.19;5043692;28;20337;-78
2022/08/17 01:12:44;;;;;;;;;;;;;;;19.67;61.57;100445.34;5042745;28;19924;-78
2022/08/17 01:15:10;;;;;;;;;;;;;;;19.66;62.07;100441.03;5047318;28;20015;-78
2022/08/17 01:17:35;;;;;;;;;;;;;;;19.68;61.13;100439.97;5042774;28;19921;-78
2022/08/17 01:20:01;;;;;;;;;;;;;;;19.68;61.07;100442.63;5029508;28;19970;-78
2022/08/17 01:22:26;;;;;;;;;;;;;;;19.67;61.29;100447.97;5047681;28;19933;-78
2022/08/17 01:24:58;;;;;;;;;;;;;;;19.68;61.40;100447.03;5030765;28;19921;-78
2022/08/17 01:27:25;;;;;;;;;;;;;;;19.67;61.46;100440.91;5033709;28;20317;-78
2022/08/17 01:29:52;;;;;;;;;;;;;;;19.68;62.52;100442.63;5026039;28;19925;-78
2022/08/17 01:32:18;;;;;;;;;;;;;;;19.67;62.34;100442.69;5042082;28;20019;-78
2022/08/17 01:34:43;;;;;;;;;;;;;;;19.70;61.74;100447.78;5032953;28;20012;-78
2022/08/17 01:37:09;;;;;;;;;;;;;;;19.70;61.34;100448.63;5020154;28;20031;-78
2022/08/17 01:39:56;;;;;;;;;;;;;;;19.72;61.38;100451.19;5009192;28;19928;-79
2022/08/17 01:42:24;;;;;;;;;;;;;;;19.71;61.63;100444.19;5022346;28;19925;-78
2022/08/17 01:44:53;;;;;;;;;;;;;;;19.70;61.24;100451.25;5051335;28;19964;-78
2022/08/17 01:47:19;;;;;;;;;;;;;;;19.71;60.62;100455.59;5052727;28;19977;-78
2022/08/17 01:49:44;;;;;;;;;;;;;;;19.70;61.24;100453.03;5026036;28;20354;-78
2022/08/17 01:52:10;;;;;;;;;;;;;;;19.67;60.99;100456.72;5052358;28;20016;-78
2022/08/17 01:54:36;;;;;;;;;;;;;;;19.66;61.04;100459.47;5045737;28;19935;-78
2022/08/17 01:57:02;;;;;;;;;;;;;;;19.67;60.73;100456.72;5055261;28;19920;-78
2022/08/17 01:59:27;;;;;;;;;;;;;;;19.64;60.56;100458.72;5043030;28;19924;-78
2022/08/17 02:01:52;;;;;;;;;;;;;;;19.61;60.85;100456.28;5043663;28;19929;-78
2022/08/17 02:04:18;;;;;;;;;;;;;;;19.57;60.89;100453.00;5049888;28;19921;-78
2022/08/17 02:06:43;;;;;;;;;;;;;;;19.54;60.46;100454.97;5044290;28;20618;-78
2022/08/17 02:09:09;;;;;;;;;;;;;;;19.53;60.63;100456.75;5042930;28;19913;-78
2022/08/17 02:11:38;;;;;;;;;;;;;;;19.51;60.34;100453.38;5039834;28;19925;-78
2022/08/17 02:14:05;;;;;;;;;;;;;;;19.50;60.71;100454.31;5041144;28;20340;-78
2022/08/17 02:16:31;;;;;;;;;;;;;;;19.50;60.49;100453.47;5044187;28;20502;-78
2022/08/17 02:18:56;;;;;;;;;;;;;;;19.47;60.68;100449.25;5061668;28;19920;-78
2022/08/17 02:21:22;;;;;;;;;;;;;;;19.47;60.11;100451.88;5046170;28;19935;-78
2022/08/17 02:23:47;;;;;;;;;;;;;;;19.46;59.54;100447.53;5052240;28;19920;-78
2022/08/17 02:26:13;;;;;;;;;;;;;;;19.49;59.39;100446.53;5040877;28;20062;-78
2022/08/17 02:28:38;;;;;;;;;;;;;;;19.48;60.15;100443.03;5055373;28;19920;-78
2022/08/17 02:31:08;;;;;;;;;;;;;;;19.48;60.21;100444.81;5033294;28;19935;-78
2022/08/17 02:33:34;;;;;;;;;;;;;;;19.46;60.05;100444.09;5042471;28;19916;-78
2022/08/17 02:36:00;;;;;;;;;;;;;;;19.44;60.00;100445.94;5014920;28;20286;-78
2022/08/17 02:38:25;;;;;;;;;;;;;;;19.44;60.02;100443.31;5023944;28;19921;-78
2022/08/17 02:40:50;;;;;;;;;;;;;;;19.43;60.11;100444.28;5036051;28;20304;-78
2022/08/17 02:43:16;;;;;;;;;;;;;;;19.41;59.84;100440.88;5029279;28;19917;-78
2022/08/17 02:45:42;;;;;;;;;;;;;;;19.40;60.18;100445.28;5026255;28;19921;-78
2022/08/17 02:48:08;;;;;;;;;;;;;;;19.36;59.90;100443.81;5000050;28;20341;-78
2022/08/17 02:50:33;;;;;;;;;;;;;;;19.34;60.01;100443.06;5039527;28;19925;-78
2022/08/17 02:52:58;;;;;;;;;;;;;;;19.33;60.86;100446.63;5054575;28;19956;-78
2022/08/17 02:55:29;;;;;;;;;;;;;;;19.31;60.30;100438.00;5053377;28;19925;-78
2022/08/17 02:57:55;;;;;;;;;;;;;;;19.31;60.76;100453.78;5044234;28;19924;-78
2022/08/17 03:00:20;;;;;;;;;;;;;;;19.31;60.44;100452.94;5042686;28;19980;-78
2022/08/17 03:02:45;;;;;;;;;;;;;;;19.25;60.50;100447.06;5043377;28;20265;-79
2022/08/17 03:05:12;;;;;;;;;;;;;;;19.25;60.90;100444.41;5026904;28;19921;-78
2022/08/17 03:07:37;;;;;;;;;;;;;;;19.25;60.66;100444.41;5043899;28;20020;-78
2022/08/17 03:10:06;;;;;;;;;;;;;;;19.22;60.37;100446.41;5045152;28;20388;-78
2022/08/17 03:12:33;;;;;;;;;;;;;;;19.24;60.04;100441.91;5046611;28;19990;-78
2022/08/17 03:15:02;;;;;;;;;;;;;;;19.23;60.31;100434.94;5042282;28;19913;-78
2022/08/17 03:17:27;;;;;;;;;;;;;;;19.21;60.17;100429.78;5044445;28;19931;-78
2022/08/17 03:19:52;;;;;;;;;;;;;;;19.24;60.05;100437.47;5034976;28;19921;-78
2022/08/17 03:22:17;;;;;;;;;;;;;;;19.26;59.39;100434.72;5030113;28;19925;-78
2022/08/17 03:24:43;;;;;;;;;;;;;;;19.29;58.65;100434.56;5023412;28;19917;-78
2022/08/17 03:27:08;;;;;;;;;;;;;;;19.26;58.89;100438.22;5044215;28;20370;-78
2022/08/17 03:29:33;;;;;;;;;;;;;;;19.29;58.83;100423.19;5032729;28;19978;-78
2022/08/17 03:32:00;;;;;;;;;;;;;;;19.30;59.21;100430.16;5042136;28;19927;-78
2022/08/17 03:34:26;;;;;;;;;;;;;;;19.29;59.24;100425.81;5039922;28;19932;-78
2022/08/17 03:36:51;;;;;;;;;;;;;;;19.23;59.61;100433.16;5039450;28;20007;-78
2022/08/17 03:39:16;;;;;;;;;;;;;;;19.24;59.19;100434.00;5046968;28;19967;-78
2022/08/17 03:41:42;;;;;;;;;;;;;;;19.26;59.74;100442.63;5047575;28;19949;-78
2022/08/17 03:44:07;;;;;;;;;;;;;;;19.25;59.35;100438.34;5038755;28;19917;-78
2022/08/17 03:57:28;;;;;;;;;;;;;;;19.26;59.10;100443.50;5039970;28;20009;-78
2022/08/17 03:59:54;;;;;;;;;;;;;;;19.26;59.28;100446.13;5054070;28;20599;-78
2022/08/17 04:02:22;;;;;;;;;;;;;;;19.26;59.04;100445.28;5039449;28;19975;-78
2022/08/17 04:04:51;;;;;;;;;;;;;;;19.26;58.77;100450.53;5044017;28;19917;-78
2022/08/17 04:07:20;;;;;;;;;;;;;;;19.26;58.96;100448.75;5045791;28;19929;-78
2022/08/17 04:09:46;;;;;;;;;;;;;;;19.27;58.54;100449.59;5050726;28;20384;-78
2022/08/17 04:12:13;;;;;;;;;;;;;;;19.32;58.80;100459.88;5024700;28;20015;-78
2022/08/17 04:14:38;;;;;;;;;;;;;;;19.30;58.98;100459.13;5043321;28;20014;-78
2022/08/17 04:17:04;;;;;;;;;;;;;;;19.33;59.19;100453.69;5044791;28;19925;-78
2022/08/17 04:19:29;;;;;;;;;;;;;;;19.29;59.08;100449.53;5047759;28;19928;-78
2022/08/17 04:21:56;;;;;;;;;;;;;;;19.31;58.60;100453.78;5035123;28;19928;-78
2022/08/17 04:24:22;;;;;;;;;;;;;;;19.32;58.72;100457.25;5030753;28;20377;-78
2022/08/17 04:26:47;;;;;;;;;;;;;;;19.31;58.51;100452.94;5040223;28;19975;-78
2022/08/17 04:29:12;;;;;;;;;;;;;;;19.29;58.33;100454.78;5046266;28;19921;-78
2022/08/17 04:31:38;;;;;;;;;;;;;;;19.29;58.98;100460.91;5047768;28;19991;-78
2022/08/17 04:34:03;;;;;;;;;;;;;;;19.32;58.82;100459.88;5057592;28;19929;-78
2022/08/17 04:36:28;;;;;;;;;;;;;;;19.33;58.03;100459.78;5046327;28;19921;-78
2022/08/17 04:38:53;;;;;;;;;;;;;;;19.34;58.83;100458.88;5048478;28;19936;-78
2022/08/17 04:44:03;;;;;;;;;;;;;;;19.31;58.51;100458.19;5043170;28;19947;-78
2022/08/17 04:46:31;;;;;;;;;;;;;;;19.32;58.59;100454.59;5039111;28;19921;-78
2022/08/17 04:48:57;;;;;;;;;;;;;;;19.31;58.29;100460.84;5032978;28;20005;-78
2022/08/17 04:51:31;;;;;;;;;;;;;;;19.34;58.64;100460.66;5047105;28;20019;-78
2022/08/17 04:54:02;;;;;;;;;;;;;;;19.34;58.26;100460.66;5045505;28;19960;-78
2022/08/17 04:56:28;;;;;;;;;;;;;;;19.35;58.64;100463.16;5044797;28;19928;-78
2022/08/17 04:58:56;;;;;;;;;;;;;;;19.35;58.80;100463.16;5055698;28;19924;-78
2022/08/17 05:01:23;;;;;;;;;;;;;;;19.35;57.90;100462.31;5036943;28;20450;-78
2022/08/17 05:03:48;;;;;;;;;;;;;;;19.34;58.08;100458.00;5018040;28;19953;-78
2022/08/17 05:06:14;;;;;;;;;;;;;;;19.36;58.15;100456.13;5020174;28;19921;-78
2022/08/17 05:08:39;;;;;;;;;;;;;;;19.36;58.42;100464.03;5025275;28;19965;-78
2022/08/17 05:11:05;;;;;;;;;;;;;;;19.38;58.39;100462.13;5033882;28;20341;-78
2022/08/17 05:13:30;;;;;;;;;;;;;;;19.37;58.40;100460.47;5040313;28;19921;-78
2022/08/17 05:16:00;;;;;;;;;;;;;;;19.38;58.79;100462.97;5043302;28;21188;-78
2022/08/17 05:18:26;;;;;;;;;;;;;;;19.38;58.24;100452.44;5027030;28;19936;-78
2022/08/17 05:20:51;;;;;;;;;;;;;;;19.39;58.29;100450.66;5021071;28;19948;-78
2022/08/17 05:23:18;;;;;;;;;;;;;;;19.38;58.17;100446.31;5014662;28;20022;-78
2022/08/17 05:25:45;;;;;;;;;;;;;;;19.38;57.87;100446.31;5016887;28;19921;-78
2022/08/17 05:28:10;;;;;;;;;;;;;;;19.37;58.00;100440.25;5026275;28;20374;-78
2022/08/17 05:30:36;;;;;;;;;;;;;;;19.42;58.10;100439.94;5039911;28;19963;-78
2022/08/17 05:33:06;;;;;;;;;;;;;;;19.38;58.05;100447.19;5021060;28;19924;-78
2022/08/17 05:35:33;;;;;;;;;;;;;;;19.41;58.62;100461.94;5017604;28;20406;-78
2022/08/17 05:37:58;;;;;;;;;;;;;;;19.42;58.51;100447.84;5017625;28;20016;-78
2022/08/17 05:40:24;;;;;;;;;;;;;;;19.42;58.58;100447.84;5027987;28;20008;-78
2022/08/17 05:42:50;;;;;;;;;;;;;;;19.45;58.81;100451.13;5043567;28;19921;-78
2022/08/17 05:45:17;;;;;;;;;;;;;;;19.45;58.35;100458.19;5042212;28;19944;-78
2022/08/17 05:47:44;;;;;;;;;;;;;;;19.46;58.40;100454.63;5048137;28;19948;-78
2022/08/17 05:50:15;;;;;;;;;;;;;;;19.47;58.10;100448.38;5039873;28;19925;-78
2022/08/17 05:52:40;;;;;;;;;;;;;;;19.51;57.31;100456.03;5053236;28;19917;-78
2022/08/17 05:55:08;;;;;;;;;;;;;;;19.50;57.14;100456.09;5043859;28;19925;-78
2022/08/17 05:57:42;;;;;;;;;;;;;;;19.52;57.52;100462.13;5043988;28;20058;-78
2022/08/17 06:00:07;;;;;;;;;;;;;;;19.55;58.04;100456.69;5040978;28;19921;-78
2022/08/17 06:02:55;;;;;;;;;;;;;;;19.54;57.94;100458.47;5038206;28;20123;-78
2022/08/17 06:05:39;;;;;;;;;;;;;;;19.59;58.01;100463.44;4993097;28;19921;-78
2022/08/17 06:08:11;;;;;;;;;;;;;;;19.59;58.40;100459.00;5032904;28;19968;-79
2022/08/17 06:10:47;;;;;;;;;;;;;;;19.62;58.62;100468.50;5033236;28;19932;-78
2022/08/17 06:13:18;;;;;;;;;;;;;;;19.66;58.23;100464.75;5032688;28;20688;-78
2022/08/17 06:15:44;;;;;;;;;;;;;;;19.66;58.30;100477.91;5018007;28;19917;-78
2022/08/17 06:18:10;;;;;;;;;;;;;;;19.70;58.81;100490.78;5049357;28;20410;-78
2022/08/17 06:20:46;;;;;;;;;;;;;;;19.72;58.28;100504.75;5018307;28;19972;-79
2022/08/17 06:23:17;;;;;;;;;;;;;;;19.74;57.37;100502.00;5020486;28;19928;-78
2022/08/17 06:25:48;;;;;;;;;;;;;;;19.67;57.81;100517.34;5037651;28;19933;-78
2022/08/17 06:28:18;;;;;;;;;;;;;;;19.66;57.96;100507.75;5042437;28;19968;-78
2022/08/17 06:30:47;;;;;;;;;;;;;;;19.69;58.04;100518.09;5045009;28;20004;-78
2022/08/17 06:33:18;;;;;;;;;;;;;;;19.65;58.76;100502.56;5041658;28;19996;-78
2022/08/17 06:35:48;;;;;;;;;;;;;;;19.70;58.71;100488.16;5042721;28;20377;-78
2022/08/17 06:38:31;;;;;;;;;;;;;;;19.77;58.03;100501.81;5029726;28;19952;-78
2022/08/17 06:41:02;;;;;;;;;;;;;;;19.78;58.21;100490.31;5032806;28;19932;-78
2022/08/17 06:43:46;;;;;;;;;;;;;;;19.83;57.78;100493.50;5033694;28;19967;-78
2022/08/17 06:46:17;;;;;;;;;;;;;;;19.86;58.22;100495.94;5043655;28;19920;-78
2022/08/17 06:48:52;;;;;;;;;;;;;;;19.90;58.37;100502.72;5034890;28;19972;-78
2022/08/17 06:51:22;;;;;;;;;;;;;;;19.96;58.30;100504.97;5019453;28;19982;-78
2022/08/17 06:53:51;;;;;;;;;;;;;;;19.98;58.20;100496.94;5027162;28;19917;-78
2022/08/17 06:56:32;;;;;;;;;;;;;;;19.99;57.93;100496.00;5021268;28;19991;-78
2022/08/17 06:58:58;;;;;;;;;;;;;;;20.01;58.14;100499.38;5037581;28;20320;-78
2022/08/17 07:01:28;;;;;;;;;;;;;;;20.03;58.59;100497.50;5025060;28;19966;-78
2022/08/17 07:04:02;;;;;;;;;;;;;;;20.04;58.24;100497.41;5044949;28;19988;-78
2022/08/17 07:06:43;;;;;;;;;;;;;;;20.05;58.03;100501.75;5042883;28;19917;-78
2022/08/17 07:09:16;;;;;;;;;;;;;;;20.07;57.60;100502.50;5038690;28;19917;-78
2022/08/17 07:11:47;;;;;;;;;;;;;;;20.12;57.60;100507.47;5039973;28;20381;-78
2022/08/17 07:14:19;;;;;;;;;;;;;;;20.12;57.82;100510.97;5038906;28;20011;-78
2022/08/17 07:16:46;;;;;;;;;;;;;;;20.15;58.20;100517.84;5035473;28;20002;-78
2022/08/17 07:19:15;;;;;;;;;;;;;;;20.15;57.92;100508.13;5038346;28;19975;-78
2022/08/17 07:21:59;;;;;;;;;;;;;;;20.17;57.72;100513.31;5041284;28;19986;-78
2022/08/17 07:24:27;;;;;;;;;;;;;;;20.19;58.00;100519.34;5043535;28;20254;-78
2022/08/17 07:27:03;;;;;;;;;;;;;;;20.19;57.96;100522.84;5051684;28;19932;-79
2022/08/17 07:29:31;;;;;;;;;;;;;;;20.28;58.31;100529.28;5035581;28;19925;-78
2022/08/17 07:31:57;;;;;;;;;;;;;;;20.24;57.48;100527.78;5041620;28;19924;-78
2022/08/17 07:34:22;;;;;;;;;;;;;;;20.26;57.65;100529.38;5043190;28;19925;-78
2022/08/17 07:37:00;;;;;;;;;;;;;;;20.27;57.83;100535.50;5026852;28;19929;-78
2022/08/17 07:39:26;;;;;;;;;;;;;;;20.28;58.08;100539.84;5049446;28;20353;-78
2022/08/17 07:42:00;;;;;;;;;;;;;;;20.31;57.78;100545.78;5050511;28;19917;-78
2022/08/17 07:44:25;;;;;;;;;;;;;;;20.34;58.00;100553.50;5046318;28;20032;-78
2022/08/17 07:49:38;;;;;;;;;;;;;;;20.30;58.25;100552.00;5047762;28;19936;-78
2022/08/17 07:52:08;;;;;;;;;;;;;;;20.42;58.25;100554.78;5028705;28;19978;-78
2022/08/17 07:54:38;;;;;;;;;;;;;;;20.40;57.75;100552.25;5042324;28;19948;-78
2022/08/17 07:57:10;;;;;;;;;;;;;;;20.41;57.61;100555.75;5043976;28;19977;-79
2022/08/17 07:59:37;;;;;;;;;;;;;;;20.49;57.07;100558.72;5042970;28;19921;-79
2022/08/17 08:02:04;;;;;;;;;;;;;;;20.52;57.06;100556.72;5041580;28;19925;-78
2022/08/17 08:04:33;;;;;;;;;;;;;;;20.52;56.74;100558.50;5042341;28;20184;-78
2022/08/17 08:07:00;;;;;;;;;;;;;;;20.57;57.07;100551.97;5043400;28;19925;-78
2022/08/17 08:09:31;;;;;;;;;;;;;;;20.54;56.85;100546.06;5042108;28;19928;-78
2022/08/17 08:11:57;;;;;;;;;;;;;;;20.51;57.17;100541.84;5033759;28;20289;-79
2022/08/17 08:14:24;;;;;;;;;;;;;;;20.52;57.40;100543.53;5041921;28;19920;-78
2022/08/17 08:16:57;;;;;;;;;;;;;;;20.50;57.27;100541.94;5047742;28;20011;-78
2022/08/17 08:19:25;;;;;;;;;;;;;;;20.50;57.25;100540.13;5033971;28;20442;-78
2022/08/17 08:22:02;;;;;;;;;;;;;;;20.50;57.17;100544.59;5026940;28;19921;-78
2022/08/17 08:24:46;;;;;;;;;;;;;;;20.49;57.31;100554.28;5017716;28;19921;-78
2022/08/17 08:27:28;;;;;;;;;;;;;;;20.51;57.24;100562.09;5026505;28;19928;-78
2022/08/17 08:30:08;;;;;;;;;;;;;;;20.49;57.06;100579.81;5026782;28;20321;-79
2022/08/17 08:32:33;;;;;;;;;;;;;;;20.44;57.38;100592.47;5019680;28;20294;-79
2022/08/17 08:35:06;;;;;;;;;;;;;;;20.47;57.22;100598.38;5031366;28;19917;-78
2022/08/17 08:37:50;;;;;;;;;;;;;;;20.45;57.35;100609.97;5037179;28;20449;-78
2022/08/17 08:40:15;;;;;;;;;;;;;;;20.43;57.29;100603.97;5043914;28;19921;-78
2022/08/17 08:42:43;;;;;;;;;;;;;;;20.44;57.43;100603.03;5041575;28;20006;-78
2022/08/17 08:45:21;;;;;;;;;;;;;;;20.46;57.50;100598.50;5038140;28;20369;-78
2022/08/17 08:47:52;;;;;;;;;;;;;;;20.44;57.46;100590.66;5021763;28;19932;-78
2022/08/17 08:50:21;;;;;;;;;;;;;;;20.43;57.45;100586.34;5040431;28;19925;-78
2022/08/17 08:52:49;;;;;;;;;;;;;;;20.42;57.27;100592.56;5043016;28;20012;-78
2022/08/17 08:55:33;;;;;;;;;;;;;;;20.43;57.30;100599.53;5031215;28;19929;-78
2022/08/17 08:58:03;;;;;;;;;;;;;;;20.43;57.59;100599.53;5019286;28;20093;-78
2022/08/17 09:00:35;;;;;;;;;;;;;;;20.42;57.74;100607.53;5025212;28;19955;-78
2022/08/17 09:03:22;;;;;;;;;;;;;;;20.43;57.78;100611.88;5032178;28;19974;-78
2022/08/17 09:05:57;;;;;;;;;;;;;;;20.44;57.50;100603.03;5030102;28;19920;-78
2022/08/17 09:08:28;;;;;;;;;;;;;;;20.44;57.71;100603.84;5041458;28;19921;-78
2022/08/17 09:10:56;;;;;;;;;;;;;;;20.43;58.12;100603.97;5038307;28;19933;-78
2022/08/17 09:13:31;;;;;;;;;;;;;;;20.44;58.27;100609.13;5023937;28;19996;-78
2022/08/17 09:15:58;;;;;;;;;;;;;;;20.46;57.74;100609.03;5028536;28;19929;-77
2022/08/17 09:18:26;;;;;;;;;;;;;;;20.43;57.92;100610.09;5043986;28;19921;-78
2022/08/17 09:20:55;;;;;;;;;;;;;;;20.42;57.68;100613.66;5047116;28;19959;-78
2022/08/17 09:23:33;;;;;;;;;;;;;;;20.43;57.27;100611.88;5021683;28;19921;-78
2022/08/17 09:26:13;;;;;;;;;;;;;;;20.43;57.63;100617.16;5011740;28;20012;-78
2022/08/17 09:28:41;;;;;;;;;;;;;;;20.41;57.83;100619.91;5031087;28;19929;-79
2022/08/17 09:31:08;;;;;;;;;;;;;;;20.40;58.50;100628.75;5021676;28;19935;-78
2022/08/17 09:33:35;;;;;;;;;;;;;;;20.40;59.10;100614.72;5040080;28;19920;-78
2022/08/17 09:36:24;;;;;;;;;;;;;;;20.37;58.48;100618.41;5024282;28;19925;-79
2022/08/17 09:38:56;;;;;;;;;;;;;;;20.38;58.04;100608.69;5028718;28;19917;-78
2022/08/17 09:41:42;;;;;;;;;;;;;;;20.38;58.19;100613.97;5022204;28;19924;-78
2022/08/17 09:44:26;;;;;;;;;;;;;;;20.35;57.89;100602.66;5022387;28;19925;-78
2022/08/17 09:47:10;;;;;;;;;;;;;;;20.39;57.95;100599.81;5033304;28;19921;-78
2022/08/17 09:49:42;;;;;;;;;;;;;;;20.42;58.47;100591.72;5018096;28;19929;-78
2022/08/17 09:52:16;;;;;;;;;;;;;;;20.42;58.63;100595.19;5032285;28;19925;-77
2022/08/17 09:54:43;;;;;;;;;;;;;;;20.50;58.38;100597.38;5019457;28;19917;-78
2022/08/17 09:57:17;;;;;;;;;;;;;;;20.53;58.66;100599.81;5020231;28;19961;-78
2022/08/17 09:59:45;;;;;;;;;;;;;;;20.57;58.64;100601.28;5020462;28;19968;-77
2022/08/17 10:02:22;;;;;;;;;;;;;;;20.63;58.43;100601.72;5052451;28;19925;-78
2022/08/17 10:05:05;;;;;;;;;;;;;;;20.70;57.80;100605.69;5052667;28;19920;-78
2022/08/17 10:07:46;;;;;;;;;;;;;;;20.72;57.63;100601.13;5041356;28;19921;-78
2022/08/17 10:10:14;;;;;;;;;;;;;;;20.69;57.47;100603.97;5040560;28;19932;-78
2022/08/17 10:12:40;;;;;;;;;;;;;;;20.70;57.78;100595.13;5038690;28;20003;-78
2022/08/17 10:15:21;;;;;;;;;;;;;;;20.76;57.84;100591.22;5036994;28;20504;-78
2022/08/17 10:18:20;;;;;;;;;;;;;;;20.73;57.92;100600.19;5035019;28;20317;-78
2022/08/17 10:26:11;;;;;;;;;;;;;;;20.77;57.98;100606.94;5008734;28;20309;-78
2022/08/17 10:26:26;;;;;;;;;;;;;;;20.83;57.44;100603.06;5036257;28;19967;-78
2022/08/17 10:29:00;;;;;;;;;;;;;;;20.84;57.94;100608.28;5044977;28;19921;-78
2022/08/17 10:31:27;;;;;;;;;;;;;;;20.95;57.62;100609.34;5041006;28;19929;-78
2022/08/17 10:34:11;;;;;;;;;;;;;;;21.05;57.67;100608.66;5039902;28;19921;-78
2022/08/17 10:36:36;;;;;;;;;;;;;;;21.11;57.15;100618.81;5036061;28;19917;-78
2022/08/17 10:39:20;;;;;;;;;;;;;;;21.00;56.68;100617.81;5031081;28;19966;-78
2022/08/17 10:41:51;;;;;;;;;;;;;;;21.08;57.44;100623.44;5042071;28;20336;-78
2022/08/17 10:44:35;;;;;;;;;;;;;;;21.02;57.13;100624.69;5038691;28;19921;-78
2022/08/17 10:47:13;;;;;;;;;;;;;;;21.02;57.43;100624.69;5044368;28;19992;-78
2022/08/17 10:49:46;;;;;;;;;;;;;;;20.97;58.48;100629.44;5041261;28;19979;-78
2022/08/17 10:52:21;;;;;;;;;;;;;;;20.92;58.71;100628.06;5025273;28;19931;-78
2022/08/17 10:54:55;;;;;;;;;;;;;;;20.87;58.27;100623.06;5027718;28;19917;-78
2022/08/17 10:57:32;;;;;;;;;;;;;;;20.92;58.41;100626.25;5025763;28;19925;-78
2022/08/17 11:00:00;;;;;;;;;;;;;;;20.82;59.14;100626.00;5022098;28;19964;-78
2022/08/17 11:02:29;;;;;;;;;;;;;;;20.87;59.68;100623.06;5033097;28;19924;-78
2022/08/17 11:04:57;;;;;;;;;;;;;;;20.94;58.82;100626.16;5050201;28;19920;-78
2022/08/17 11:07:38;;;;;;;;;;;;;;;20.87;59.00;100631.84;5025827;28;19960;-78
2022/08/17 11:10:22;;;;;;;;;;;;;;;20.99;58.82;100632.81;5001696;28;19933;-78
2022/08/17 11:12:53;;;;;;;;;;;;;;;21.01;58.40;100630.06;5007377;28;20301;-78
2022/08/17 11:15:37;;;;;;;;;;;;;;;21.06;58.05;100634.13;5021281;28;19979;-78
2022/08/17 11:18:05;;;;;;;;;;;;;;;21.14;58.56;100623.88;5005837;28;19979;-78
2022/08/17 11:20:49;;;;;;;;;;;;;;;21.27;57.39;100621.28;5036699;28;20448;-78
2022/08/17 11:23:14;;;;;;;;;;;;;;;21.36;57.33;100623.28;5043058;28;20312;-78
2022/08/17 11:25:42;;;;;;;;;;;;;;;21.12;57.84;100625.78;5054151;28;19924;-78
2022/08/17 11:28:13;;;;;;;;;;;;;;;21.21;58.00;100617.22;5020769;28;19921;-77
2022/08/17 11:30:40;;;;;;;;;;;;;;;21.30;57.71;100615.78;5020276;28;19921;-78
2022/08/17 11:33:24;;;;;;;;;;;;;;;21.19;57.78;100613.00;5022892;28;19927;-78
2022/08/17 11:35:54;;;;;;;;;;;;;;;21.18;57.63;100620.09;5034892;28;19956;-78
2022/08/17 11:38:33;;;;;;;;;;;;;;;21.31;57.27;100615.66;5048464;28;19917;-78
2022/08/17 11:41:07;;;;;;;;;;;;;;;21.36;57.82;100605.63;5043672;28;19955;-78
2022/08/17 11:43:51;;;;;;;;;;;;;;;21.45;57.39;100610.28;5040344;28;20378;-78
2022/08/17 11:46:19;;;;;;;;;;;;;;;21.55;57.12;100607.00;5042030;28;19921;-78
2022/08/17 11:51:47;;;;;;;;;;;;;;;21.66;56.97;100607.16;5022848;28;20289;-78
2022/08/17 11:54:16;;;;;;;;;;;;;;;21.41;57.78;100606.16;5019057;28;19953;-78
2022/08/17 11:56:49;;;;;;;;;;;;;;;21.45;57.07;100591.78;5026406;28;19921;-78
2022/08/17 11:59:34;;;;;;;;;;;;;;;21.36;57.67;100599.50;5017540;28;19925;-78
2022/08/17 12:02:21;;;;;;;;;;;;;;;21.42;58.06;100599.91;5040484;28;19944;-78
2022/08/17 12:05:12;;;;;;;;;;;;;;;21.39;57.46;100604.59;5029932;28;19928;-78
2022/08/17 12:07:43;;;;;;;;;;;;;;;21.53;58.32;100606.25;5002977;28;19929;-78
2022/08/17 12:10:10;;;;;;;;;;;;;;;21.43;58.35;100612.19;5016441;28;19925;-78
2022/08/17 12:12:39;;;;;;;;;;;;;;;21.58;57.90;100617.34;5022398;28;19961;-78
2022/08/17 12:15:06;;;;;;;;;;;;;;;21.47;58.09;100620.75;5024102;28;20003;-78
2022/08/17 12:17:33;;;;;;;;;;;;;;;21.51;58.74;100618.75;5023251;28;19954;-78
2022/08/17 12:20:22;;;;;;;;;;;;;;;21.49;57.96;100620.63;5038760;28;19920;-78
2022/08/17 12:22:56;;;;;;;;;;;;;;;21.50;57.99;100617.06;5026082;28;19975;-78
2022/08/17 12:25:31;;;;;;;;;;;;;;;21.39;57.36;100615.97;5044366;28;19944;-79
2022/08/17 12:27:57;;;;;;;;;;;;;;;21.35;58.36;100622.44;5053271;28;19916;-78
2022/08/17 12:30:22;;;;;;;;;;;;;;;21.63;57.10;100608.19;5041698;28;20370;-78
2022/08/17 12:32:48;;;;;;;;;;;;;;;21.54;57.50;100600.03;5049870;28;19929;-79
2022/08/17 12:35:23;;;;;;;;;;;;;;;21.55;57.77;100607.84;5053083;28;19970;-79
2022/08/17 12:37:49;;;;;;;;;;;;;;;21.51;57.44;100616.09;5056684;28;19929;-78
2022/08/17 12:40:22;;;;;;;;;;;;;;;21.50;58.28;100617.06;5049326;28;19967;-77
2022/08/17 12:42:55;;;;;;;;;;;;;;;21.61;57.62;100619.81;5045170;28;20036;-77
2022/08/17 12:45:23;;;;;;;;;;;;;;;21.73;56.69;100618.97;5041225;28;19960;-77
2022/08/17 12:47:57;;;;;;;;;;;;;;;21.71;56.86;100615.59;5043502;28;20008;-77
2022/08/17 12:50:23;;;;;;;;;;;;;;;21.67;57.63;100625.53;5033061;28;19925;-77
2022/08/17 12:52:49;;;;;;;;;;;;;;;21.75;57.56;100633.78;5038795;28;19921;-76
2022/08/17 12:55:20;;;;;;;;;;;;;;;21.81;56.57;100625.41;5047340;28;19982;-77
2022/08/17 12:57:53;;;;;;;;;;;;;;;21.65;57.27;100621.31;5042190;28;20285;-77
2022/08/17 13:00:27;;;;;;;;;;;;;;;21.47;58.54;100623.41;5038543;28;19924;-77
2022/08/17 13:03:04;;;;;;;;;;;;;;;21.67;57.63;100606.19;5036996;28;19921;-76
2022/08/17 13:05:40;;;;;;;;;;;;;;;21.71;57.59;100603.22;5043348;28;20019;-76
2022/08/17 13:08:18;;;;;;;;;;;;;;;21.67;57.63;100607.03;5028749;28;19928;-76
2022/08/17 13:10:52;;;;;;;;;;;;;;;21.60;57.94;100604.94;5023761;28;19985;-77
2022/08/17 13:13:23;;;;;;;;;;;;;;;21.62;57.67;100598.59;5027344;28;19921;-77